Time;durP1;ratioP1;P1;durP2;ratioP2;P2;SDS_P1;SDS_P2;PMS_P1;PMS_P2;Temp;Humidity;BMP_temperature;BMP_pressure;BME280_temperature;BME280_humidity;BME280_pressure;Samples;Min_cycle;Max_cycle;Signal;HPM_P1;HPM_P2
2022/08/12 00:44:53;;;;;;;;;;;;;;;18.22;67.29;100900.97;5001278;28;1432;-84
2022/08/12 00:47:20;;;;;;;;;;;;;;;18.19;66.93;100907.19;5018096;28;1901;-84
2022/08/12 00:49:45;;;;;;;;;;;;;;;17.77;68.40;100903.94;5026421;28;1470;-84
2022/08/12 00:52:11;;;;;;;;;;;;;;;17.95;68.60;100910.31;5018628;28;1724;-84
2022/08/12 00:54:50;;;;;;;;;;;;;;;17.74;69.71;100907.31;5030686;28;1402;-83
2022/08/12 00:57:16;;;;;;;;;;;;;;;17.81;68.40;100904.09;5031929;28;1401;-83
2022/08/12 00:59:43;;;;;;;;;;;;;;;18.01;67.55;100899.94;5033525;28;1503;-84
2022/08/12 01:02:09;;;;;;;;;;;;;;;18.01;68.07;100905.47;5025722;28;1260;-83
2022/08/12 01:12:48;;;;;;;;;;;;;;;17.86;68.24;100898.44;5008485;28;1424;-85
2022/08/12 01:15:13;;;;;;;;;;;;;;;17.63;68.47;100899.59;5026621;28;1623;-84
2022/08/12 01:17:42;;;;;;;;;;;;;;;17.72;68.73;100900.47;5020594;28;1464;-83
2022/08/12 01:20:11;;;;;;;;;;;;;;;17.74;68.33;100909.28;5027039;28;1623;-84
2022/08/12 01:22:49;;;;;;;;;;;;;;;17.89;69.00;100908.03;5034721;28;1734;-84
2022/08/12 01:25:17;;;;;;;;;;;;;;;17.92;68.49;100901.88;5035187;28;1282;-84
2022/08/12 01:27:42;;;;;;;;;;;;;;;17.50;69.81;100903.25;5023920;28;1902;-83
2022/08/12 01:30:09;;;;;;;;;;;;;;;17.72;68.87;100908.78;5024968;28;1184;-84
2022/08/12 01:32:37;;;;;;;;;;;;;;;17.73;68.80;100910.41;5019171;28;1552;-83
2022/08/12 01:35:14;;;;;;;;;;;;;;;17.83;69.10;100907.38;5019034;28;1481;-83
2022/08/12 01:38:03;;;;;;;;;;;;;;;17.86;69.29;100905.91;5016160;28;1505;-84
2022/08/12 01:40:31;;;;;;;;;;;;;;;17.60;68.82;100909.34;5019696;28;1304;-84
2022/08/12 01:42:58;;;;;;;;;;;;;;;17.68;68.68;100916.09;5027103;28;1753;-83
2022/08/12 01:45:24;;;;;;;;;;;;;;;17.63;68.83;100916.22;5028083;28;1810;-84
2022/08/12 01:48:03;;;;;;;;;;;;;;;17.53;68.32;100910.91;5022744;28;1952;-83
2022/08/12 01:50:35;;;;;;;;;;;;;;;17.42;69.30;100915.91;5006420;28;1541;-84
2022/08/12 01:53:07;;;;;;;;;;;;;;;17.15;70.97;100910.50;5009753;28;1362;-84
2022/08/12 01:55:33;;;;;;;;;;;;;;;17.22;70.64;100913.66;5018849;28;1597;-83
2022/08/12 01:58:04;;;;;;;;;;;;;;;17.18;69.67;100907.13;5021425;28;1414;-83
2022/08/12 02:00:47;;;;;;;;;;;;;;;17.07;70.78;100916.81;5029459;28;1170;-84
2022/08/12 02:03:25;;;;;;;;;;;;;;;17.17;70.15;100913.78;5024343;28;1437;-83
2022/08/12 02:12:02;;;;;;;;;;;;;;;16.95;69.91;100915.41;5017723;28;1372;-83
2022/08/12 02:14:58;;;;;;;;;;;;;;;16.69;70.93;100917.13;5030498;28;1315;-84
2022/08/12 02:17:46;;;;;;;;;;;;;;;16.92;70.84;100918.81;5012671;28;1648;-83
2022/08/12 02:20:21;;;;;;;;;;;;;;;16.87;70.43;100912.56;5023522;28;1542;-83
2022/08/12 02:22:47;;;;;;;;;;;;;;;16.65;71.17;100918.88;5029660;28;1793;-83
2022/08/12 02:25:28;;;;;;;;;;;;;;;16.72;71.64;100919.28;5038484;28;1191;-83
2022/08/12 02:27:54;;;;;;;;;;;;;;;16.84;70.15;100911.22;5042556;28;1947;-82
2022/08/12 02:30:24;;;;;;;;;;;;;;;16.64;70.52;100922.78;5004628;28;1273;-84
2022/08/12 02:32:50;;;;;;;;;;;;;;;16.31;72.37;100918.50;5027936;28;1381;-83
2022/08/12 02:35:19;;;;;;;;;;;;;;;16.36;71.97;100923.91;5025916;28;1298;-83
2022/08/12 02:37:45;;;;;;;;;;;;;;;16.50;71.29;100913.66;5021669;28;1492;-83
2022/08/12 02:40:12;;;;;;;;;;;;;;;16.64;70.86;100911.72;5038354;28;1303;-83
2022/08/12 02:42:39;;;;;;;;;;;;;;;16.11;72.33;100922.50;5027189;28;1539;-83
2022/08/12 02:45:06;;;;;;;;;;;;;;;16.36;71.88;100910.09;5032536;28;1490;-83
2022/08/12 02:47:33;;;;;;;;;;;;;;;16.28;72.05;100917.16;5034186;28;1906;-83
2022/08/12 02:50:01;;;;;;;;;;;;;;;16.45;71.42;100911.00;5026181;28;1627;-84
2022/08/12 02:52:26;;;;;;;;;;;;;;;16.46;70.93;100909.88;5029709;28;1719;-83
2022/08/12 02:54:56;;;;;;;;;;;;;;;16.47;71.15;100917.88;5021281;28;1536;-83
2022/08/12 02:57:22;;;;;;;;;;;;;;;16.14;71.73;100910.84;5016424;28;1463;-83
2022/08/12 02:59:48;;;;;;;;;;;;;;;16.05;72.32;100913.50;5014297;28;1625;-83
2022/08/12 03:02:15;;;;;;;;;;;;;;;16.22;71.73;100915.63;5030823;28;1609;-84
2022/08/12 03:04:45;;;;;;;;;;;;;;;16.20;71.66;100915.94;5018597;28;1601;-84
2022/08/12 03:07:13;;;;;;;;;;;;;;;16.08;72.70;100915.63;5032857;28;1871;-84
2022/08/12 03:09:44;;;;;;;;;;;;;;;16.04;72.91;100919.31;5018153;28;1617;-84
2022/08/12 03:12:10;;;;;;;;;;;;;;;15.99;72.89;100914.72;5030892;28;1783;-84
2022/08/12 03:14:38;;;;;;;;;;;;;;;16.12;72.74;100919.44;5022636;28;1672;-83
2022/08/12 03:17:14;;;;;;;;;;;;;;;16.32;71.46;100923.72;5031455;28;1368;-84
2022/08/12 03:19:42;;;;;;;;;;;;;;;16.21;71.78;100925.06;5016337;28;1507;-82
2022/08/12 03:22:13;;;;;;;;;;;;;;;16.16;71.97;100920.44;5022337;28;1578;-83
2022/08/12 03:24:43;;;;;;;;;;;;;;;16.10;72.45;100921.66;5034566;28;1408;-83
2022/08/12 03:27:09;;;;;;;;;;;;;;;16.05;71.96;100932.84;5034822;28;1947;-83
2022/08/12 03:29:37;;;;;;;;;;;;;;;15.86;72.78;100918.28;5018278;28;1473;-83
2022/08/12 03:32:03;;;;;;;;;;;;;;;15.87;73.18;100917.19;5032210;28;1434;-84
2022/08/12 03:34:32;;;;;;;;;;;;;;;15.68;73.35;100925.53;5032853;28;1256;-83
2022/08/12 03:36:59;;;;;;;;;;;;;;;15.72;73.27;100917.47;5026890;28;1809;-83
2022/08/12 03:39:39;;;;;;;;;;;;;;;15.89;73.21;100921.28;5030096;28;1428;-84
2022/08/12 03:42:20;;;;;;;;;;;;;;;15.69;72.95;100923.59;5019751;28;1392;-83
2022/08/12 04:01:24;;;;;;;;;;;;;;;15.52;74.02;100924.97;5022417;28;1734;-84
2022/08/12 04:03:52;;;;;;;;;;;;;;;15.58;72.84;100922.13;5031809;28;1355;-84
2022/08/12 04:06:22;;;;;;;;;;;;;;;15.57;73.02;100918.53;5038535;28;1346;-83
2022/08/12 04:08:49;;;;;;;;;;;;;;;15.44;73.23;100917.38;5020767;28;1902;-84
2022/08/12 04:14:13;;;;;;;;;;;;;;;15.32;74.42;100924.47;5020211;28;1201;-84
2022/08/12 04:16:38;;;;;;;;;;;;;;;15.44;74.04;100913.81;5029148;28;1423;-84
2022/08/12 04:19:04;;;;;;;;;;;;;;;15.32;74.43;100921.72;5034971;28;1262;-84
2022/08/12 04:21:31;;;;;;;;;;;;;;;15.45;73.96;100920.97;5025815;28;1361;-82
2022/08/12 04:23:57;;;;;;;;;;;;;;;15.24;74.10;100919.66;5042888;28;1753;-84
2022/08/12 04:26:22;;;;;;;;;;;;;;;14.86;75.52;100919.72;5024058;28;1245;-84
2022/08/12 04:28:47;;;;;;;;;;;;;;;15.01;75.59;100913.97;5038087;28;1898;-83
2022/08/12 04:31:13;;;;;;;;;;;;;;;15.24;74.81;100920.47;5018291;28;1691;-83
2022/08/12 04:33:41;;;;;;;;;;;;;;;15.04;75.48;100927.16;5072181;22;1806;-82
2022/08/12 04:36:06;;;;;;;;;;;;;;;14.87;75.65;100923.28;5035247;28;1653;-82
2022/08/12 04:38:32;;;;;;;;;;;;;;;15.06;75.78;100922.13;5038472;28;1349;-82
2022/08/12 04:40:57;;;;;;;;;;;;;;;15.17;74.93;100921.97;5035505;28;1197;-82
2022/08/12 04:43:24;;;;;;;;;;;;;;;15.15;74.46;100922.28;5034633;28;1214;-82
2022/08/12 04:45:50;;;;;;;;;;;;;;;15.29;74.17;100933.38;5017800;28;1460;-82
2022/08/12 04:48:15;;;;;;;;;;;;;;;15.29;74.09;100936.94;5017207;28;1894;-81
2022/08/12 04:50:42;;;;;;;;;;;;;;;15.30;74.75;100933.06;5014016;28;1614;-82
2022/08/12 04:53:07;;;;;;;;;;;;;;;15.03;75.18;100931.03;5017570;28;1462;-82
2022/08/12 04:55:33;;;;;;;;;;;;;;;15.15;75.36;100936.06;5016775;28;1753;-82
2022/08/12 04:57:59;;;;;;;;;;;;;;;15.05;75.90;100939.00;5017255;28;1409;-82
2022/08/12 05:00:24;;;;;;;;;;;;;;;14.65;76.59;100932.13;5017190;28;1288;-82
2022/08/12 05:02:49;;;;;;;;;;;;;;;14.72;77.01;100933.41;5015492;28;1359;-82
2022/08/12 05:05:19;;;;;;;;;;;;;;;14.87;77.25;100937.06;5009428;28;1649;-83
2022/08/12 05:07:46;;;;;;;;;;;;;;;15.15;76.61;100936.06;5018412;28;1948;-82
2022/08/12 05:10:11;;;;;;;;;;;;;;;15.31;75.91;100934.69;5015251;28;1487;-83
2022/08/12 05:12:38;;;;;;;;;;;;;;;15.23;75.81;100926.28;5017440;28;1415;-82
2022/08/12 05:15:05;;;;;;;;;;;;;;;15.44;75.36;100938.63;5018922;28;1148;-82
2022/08/12 05:17:30;;;;;;;;;;;;;;;15.44;74.44;100938.63;5017934;28;1555;-83
2022/08/12 05:19:55;;;;;;;;;;;;;;;15.48;74.52;100932.19;5014657;28;1356;-82
2022/08/12 05:22:20;;;;;;;;;;;;;;;15.26;76.24;100931.22;5018380;28;1135;-82
2022/08/12 05:24:46;;;;;;;;;;;;;;;15.45;75.75;100937.50;5017164;28;1173;-82
2022/08/12 05:27:11;;;;;;;;;;;;;;;15.52;75.82;100947.03;5013357;28;1949;-82
2022/08/12 05:29:38;;;;;;;;;;;;;;;15.62;77.31;100945.25;4998913;28;636;-82
2022/08/12 05:32:04;;;;;;;;;;;;;;;15.62;77.67;100939.72;5011373;28;1764;-82
2022/08/12 05:34:30;;;;;;;;;;;;;;;15.69;77.83;100946.50;5016512;28;1518;-82
2022/08/12 05:36:55;;;;;;;;;;;;;;;15.70;77.42;100936.28;5022743;28;822;-82
2022/08/12 05:39:20;;;;;;;;;;;;;;;15.84;77.20;100946.19;5019685;28;1691;-82
2022/08/12 05:41:45;;;;;;;;;;;;;;;16.00;76.72;100957.75;5019325;28;1799;-82
2022/08/12 05:44:15;;;;;;;;;;;;;;;16.04;77.04;100955.22;5021979;28;1221;-82
2022/08/12 05:46:40;;;;;;;;;;;;;;;15.96;78.50;100942.13;5021769;28;1917;-82
2022/08/12 05:49:05;;;;;;;;;;;;;;;16.01;78.79;100950.31;5016363;28;1467;-82
2022/08/12 05:51:32;;;;;;;;;;;;;;;16.15;78.61;100945.63;5012694;28;1473;-82
2022/08/12 05:53:57;;;;;;;;;;;;;;;16.27;77.87;100943.16;5020969;28;1784;-82
2022/08/12 05:56:27;;;;;;;;;;;;;;;16.29;78.34;100946.44;5022125;28;1487;-82
2022/08/12 05:58:53;;;;;;;;;;;;;;;16.38;78.23;100952.06;5021843;28;1494;-82
2022/08/12 06:01:19;;;;;;;;;;;;;;;16.44;77.56;100950.81;5021510;28;1388;-83
2022/08/12 06:03:44;;;;;;;;;;;;;;;16.51;77.20;100952.03;5020161;28;1511;-82
2022/08/12 06:06:10;;;;;;;;;;;;;;;16.60;77.82;100957.66;5022026;28;1736;-82
2022/08/12 06:08:36;;;;;;;;;;;;;;;16.64;77.96;100961.47;5022004;28;1953;-82
2022/08/12 06:11:04;;;;;;;;;;;;;;;16.71;79.05;100952.75;5020883;28;1561;-83
2022/08/12 06:13:30;;;;;;;;;;;;;;;16.70;79.42;100948.34;5022237;28;1275;-82
2022/08/12 06:15:55;;;;;;;;;;;;;;;16.74;79.57;100952.97;5020771;28;1587;-83
2022/08/12 06:18:20;;;;;;;;;;;;;;;16.75;78.81;100951.00;5020814;28;1401;-82
2022/08/12 06:20:48;;;;;;;;;;;;;;;16.82;79.14;100951.41;5020654;28;1587;-82
2022/08/12 06:23:14;;;;;;;;;;;;;;;16.85;78.43;100953.53;5021572;28;1805;-82
2022/08/12 06:25:39;;;;;;;;;;;;;;;16.90;78.29;100951.47;5023837;28;1447;-82
2022/08/12 06:28:13;;;;;;;;;;;;;;;16.94;77.21;100954.41;5025261;28;1936;-81
2022/08/12 06:30:39;;;;;;;;;;;;;;;16.94;78.38;100958.00;5020300;28;1886;-81
2022/08/12 06:33:05;;;;;;;;;;;;;;;16.97;76.99;100954.63;5019600;28;1593;-82
2022/08/12 06:35:30;;;;;;;;;;;;;;;17.04;77.77;100956.94;5019995;28;1743;-82
2022/08/12 06:37:55;;;;;;;;;;;;;;;17.03;78.06;100952.56;5018841;28;1648;-82
2022/08/12 06:42:46;;;;;;;;;;;;;;;17.06;76.75;100953.88;5019717;28;1074;-82
2022/08/12 06:43:06;;;;;;;;;;;;;;;17.15;77.07;100958.34;5020353;28;1415;-82
2022/08/12 06:45:32;;;;;;;;;;;;;;;17.18;77.30;100954.94;5019158;28;1427;-82
2022/08/12 06:48:00;;;;;;;;;;;;;;;17.21;77.31;100956.28;5020974;28;1953;-81
2022/08/12 06:50:25;;;;;;;;;;;;;;;17.23;76.87;100954.84;5021951;28;1382;-81
2022/08/12 06:52:50;;;;;;;;;;;;;;;17.26;76.42;100957.00;5030393;28;1766;-81
2022/08/12 06:55:19;;;;;;;;;;;;;;;17.32;77.33;100958.50;5007453;28;1442;-81
2022/08/12 06:57:55;;;;;;;;;;;;;;;17.35;74.83;100957.84;5019939;28;1559;-81
2022/08/12 07:00:24;;;;;;;;;;;;;;;17.39;75.44;100958.84;5008352;28;1377;-84
2022/08/12 07:02:50;;;;;;;;;;;;;;;17.43;74.74;100953.53;5001415;28;1160;-84
2022/08/12 07:05:23;;;;;;;;;;;;;;;17.47;74.08;100948.97;5013196;28;1402;-84
2022/08/12 07:07:50;;;;;;;;;;;;;;;17.50;73.51;100953.91;5002032;28;1925;-84
2022/08/12 07:10:16;;;;;;;;;;;;;;;17.55;74.01;100947.41;5008915;28;1594;-84
2022/08/12 07:12:41;;;;;;;;;;;;;;;17.57;74.71;100957.03;5022105;28;1217;-84
2022/08/12 07:15:07;;;;;;;;;;;;;;;17.61;74.01;100946.94;5016839;28;1600;-83
2022/08/12 07:17:35;;;;;;;;;;;;;;;17.66;75.06;100949.63;5025828;28;1462;-84
2022/08/12 07:20:01;;;;;;;;;;;;;;;17.72;74.70;100961.38;5025487;28;1300;-83
2022/08/12 07:22:26;;;;;;;;;;;;;;;17.74;74.42;100951.63;5015728;28;1621;-84
2022/08/12 07:25:29;;;;;;;;;;;;;;;17.78;72.95;100955.38;5015577;28;1434;-84
2022/08/12 07:27:39;;;;;;;;;;;;;;;17.81;74.58;100958.66;5016787;28;1948;-83
2022/08/12 07:30:06;;;;;;;;;;;;;;;17.84;73.93;100955.25;5019049;28;1479;-83
2022/08/12 07:32:31;;;;;;;;;;;;;;;17.89;73.17;100960.66;5020467;28;1452;-84
2022/08/12 07:34:56;;;;;;;;;;;;;;;17.98;73.58;100964.28;5020503;28;1630;-83
2022/08/12 07:37:22;;;;;;;;;;;;;;;18.02;72.14;100957.81;5021601;28;1285;-84
2022/08/12 07:39:47;;;;;;;;;;;;;;;18.07;72.29;100960.41;5018248;28;1507;-84
2022/08/12 07:42:12;;;;;;;;;;;;;;;18.09;72.54;100960.09;5009102;28;1579;-83
2022/08/12 07:44:37;;;;;;;;;;;;;;;18.13;71.37;100958.31;5015300;28;1327;-83
2022/08/12 07:47:02;;;;;;;;;;;;;;;18.21;71.14;100951.97;5021984;28;1942;-84
2022/08/12 07:49:28;;;;;;;;;;;;;;;18.25;69.99;100950.22;5023131;28;1372;-84
2022/08/12 07:51:53;;;;;;;;;;;;;;;18.27;70.07;100950.72;5015735;28;1488;-83
2022/08/12 07:54:18;;;;;;;;;;;;;;;18.32;68.84;100944.19;5022860;28;1970;-83
2022/08/12 07:56:43;;;;;;;;;;;;;;;18.37;69.97;100942.09;5024489;28;1304;-83
2022/08/12 07:59:09;;;;;;;;;;;;;;;18.46;70.01;100942.09;5022167;28;1116;-83
2022/08/12 08:01:36;;;;;;;;;;;;;;;18.51;70.35;100936.44;5025075;28;1514;-83
2022/08/12 08:06:46;;;;;;;;;;;;;;;18.62;67.15;100939.75;5014539;28;1867;-84
2022/08/12 08:09:12;;;;;;;;;;;;;;;18.67;66.99;100934.84;5024760;28;1348;-83
2022/08/12 08:14:28;;;;;;;;;;;;;;;18.80;65.83;100938.59;5023119;28;1439;-83
2022/08/12 08:16:53;;;;;;;;;;;;;;;18.86;66.65;100938.16;5024519;28;1403;-83
2022/08/12 08:19:22;;;;;;;;;;;;;;;18.95;67.12;100937.34;5024181;28;1395;-83
2022/08/12 08:21:48;;;;;;;;;;;;;;;19.02;65.16;100938.47;5024708;28;1566;-84
2022/08/12 08:24:13;;;;;;;;;;;;;;;19.09;65.09;100927.69;5022582;28;1356;-83
2022/08/12 08:26:39;;;;;;;;;;;;;;;19.17;63.96;100931.59;5021335;28;1573;-84
2022/08/12 08:29:04;;;;;;;;;;;;;;;19.26;65.03;100937.97;5019827;28;1901;-84
2022/08/12 08:31:29;;;;;;;;;;;;;;;19.30;64.90;100930.63;5016926;28;1492;-84
2022/08/12 08:33:54;;;;;;;;;;;;;;;19.38;64.73;100931.75;5014678;28;1579;-85
2022/08/12 08:36:20;;;;;;;;;;;;;;;19.45;64.35;100927.34;5016653;28;1352;-85
2022/08/12 08:38:45;;;;;;;;;;;;;;;19.52;63.54;100932.41;5025205;28;1508;-85
2022/08/12 08:43:55;;;;;;;;;;;;;;;19.68;62.98;100933.50;5014659;28;1558;-85
2022/08/12 08:46:21;;;;;;;;;;;;;;;19.75;64.37;100933.81;5016662;28;1403;-85
2022/08/12 08:48:46;;;;;;;;;;;;;;;19.80;62.32;100933.66;5016545;28;1902;-85
2022/08/12 08:51:12;;;;;;;;;;;;;;;19.88;60.64;100931.97;5015519;28;1496;-85
2022/08/12 08:53:38;;;;;;;;;;;;;;;19.88;61.98;100926.44;5006342;28;1449;-85
2022/08/12 08:56:03;;;;;;;;;;;;;;;19.90;62.41;100921.38;5012895;28;1464;-84
2022/08/12 08:58:28;;;;;;;;;;;;;;;19.98;62.88;100918.56;5011998;28;1651;-84
2022/08/12 09:00:55;;;;;;;;;;;;;;;20.09;61.05;100918.16;5009565;28;1511;-84
2022/08/12 09:03:20;;;;;;;;;;;;;;;20.14;59.70;100912.44;5005641;28;1540;-85
2022/08/12 09:05:45;;;;;;;;;;;;;;;20.21;59.78;100912.72;5013654;28;1044;-84
2022/08/12 09:08:10;;;;;;;;;;;;;;;20.24;60.42;100910.09;5012760;28;1946;-84
2022/08/12 09:10:37;;;;;;;;;;;;;;;20.29;61.57;100920.19;5016226;28;1371;-84
2022/08/12 09:15:47;;;;;;;;;;;;;;;20.39;61.52;100900.38;5015303;28;1424;-85
2022/08/12 09:18:12;;;;;;;;;;;;;;;20.40;58.41;100902.00;5007057;28;1645;-85
2022/08/12 09:20:38;;;;;;;;;;;;;;;20.50;58.20;100898.81;5011805;28;1406;-85
2022/08/12 09:23:08;;;;;;;;;;;;;;;20.63;57.02;100905.28;5013468;28;1403;-84
2022/08/12 09:25:34;;;;;;;;;;;;;;;20.65;57.87;100912.16;5012544;28;1440;-85
2022/08/12 09:28:00;;;;;;;;;;;;;;;20.68;57.23;100897.53;5001768;28;1947;-86
2022/08/12 09:30:26;;;;;;;;;;;;;;;20.73;58.37;100883.44;5012304;28;1460;-85
2022/08/12 09:32:51;;;;;;;;;;;;;;;20.75;57.10;100891.47;5002151;28;1444;-85
2022/08/12 09:35:19;;;;;;;;;;;;;;;20.97;57.36;100877.19;5003079;28;1248;-85
2022/08/12 09:37:46;;;;;;;;;;;;;;;20.97;58.52;100881.94;5013551;28;1399;-85
2022/08/12 09:40:11;;;;;;;;;;;;;;;21.29;55.44;100883.94;5011630;28;1774;-85
2022/08/12 09:45:21;;;;;;;;;;;;;;;21.21;56.93;100872.88;5000207;28;1364;-85
2022/08/12 09:47:46;;;;;;;;;;;;;;;21.38;54.10;100873.53;5013541;28;1898;-85
2022/08/12 09:50:11;;;;;;;;;;;;;;;21.33;54.18;100872.94;5011989;28;1493;-85
2022/08/12 09:52:36;;;;;;;;;;;;;;;21.40;54.11;100876.78;5012405;28;1760;-85
2022/08/12 09:55:03;;;;;;;;;;;;;;;21.42;54.29;100854.16;5008391;28;1452;-85
2022/08/12 09:57:28;;;;;;;;;;;;;;;21.48;54.54;100869.50;5009438;28;1586;-84
2022/08/12 09:59:55;;;;;;;;;;;;;;;21.52;53.52;100864.88;5012346;28;1396;-84
2022/08/12 10:02:21;;;;;;;;;;;;;;;21.51;52.96;100861.28;5012145;28;1380;-84
2022/08/12 10:04:47;;;;;;;;;;;;;;;21.50;51.68;100850.47;4995632;28;1351;-85
2022/08/12 10:07:13;;;;;;;;;;;;;;;21.64;52.53;100844.56;4993945;28;1949;-84
2022/08/12 10:09:38;;;;;;;;;;;;;;;21.66;52.93;100858.97;5017190;28;1515;-84
2022/08/12 10:14:47;;;;;;;;;;;;;;;21.58;53.25;100843.16;5018020;28;1451;-84
2022/08/12 10:17:13;;;;;;;;;;;;;;;21.63;54.32;100838.16;5015719;28;1321;-84
2022/08/12 10:19:38;;;;;;;;;;;;;;;21.65;53.39;100833.06;5020451;28;1500;-84
2022/08/12 10:22:04;;;;;;;;;;;;;;;21.73;53.02;100832.16;5014361;28;1735;-84
2022/08/12 10:24:30;;;;;;;;;;;;;;;21.94;52.36;100828.44;5020965;28;1543;-84
2022/08/12 10:29:40;;;;;;;;;;;;;;;22.13;50.94;100823.91;5029117;28;1449;-84
2022/08/12 10:32:06;;;;;;;;;;;;;;;22.13;51.38;100820.31;5027610;28;1430;-84
2022/08/12 10:34:32;;;;;;;;;;;;;;;22.16;50.66;100830.78;5028292;28;1828;-85
2022/08/12 10:36:57;;;;;;;;;;;;;;;22.18;53.17;100836.81;5024456;28;1105;-84
2022/08/12 10:39:24;;;;;;;;;;;;;;;22.11;53.11;100819.88;5022159;28;1462;-83
2022/08/12 10:44:34;;;;;;;;;;;;;;;22.17;53.52;100819.28;5022845;28;1533;-84
2022/08/12 10:46:59;;;;;;;;;;;;;;;22.25;53.87;100823.09;5024891;28;1871;-85
2022/08/12 10:49:26;;;;;;;;;;;;;;;22.21;50.28;100819.38;5021535;28;1770;-84
2022/08/12 10:51:53;;;;;;;;;;;;;;;22.31;51.03;100816.09;5020475;28;1724;-84
2022/08/12 10:54:19;;;;;;;;;;;;;;;22.36;52.08;100801.13;5019801;28;1619;-85
2022/08/12 10:56:48;;;;;;;;;;;;;;;22.47;50.88;100802.22;5025141;28;1312;-83
2022/08/12 10:59:14;;;;;;;;;;;;;;;22.44;50.88;100806.56;5020507;28;1625;-84
2022/08/12 11:01:41;;;;;;;;;;;;;;;22.44;52.80;100792.59;5012818;28;1633;-84
2022/08/12 11:04:09;;;;;;;;;;;;;;;22.41;53.46;100798.06;5018529;28;1286;-84
2022/08/12 11:06:36;;;;;;;;;;;;;;;22.45;51.99;100790.63;5024665;28;1802;-83
2022/08/12 11:09:01;;;;;;;;;;;;;;;22.49;52.13;100785.94;5020373;28;1874;-83
2022/08/12 11:11:26;;;;;;;;;;;;;;;22.49;51.53;100781.19;5024616;28;1419;-84
2022/08/12 11:13:51;;;;;;;;;;;;;;;22.69;51.37;100779.38;5018737;28;1762;-83
2022/08/12 11:16:16;;;;;;;;;;;;;;;22.71;51.17;100776.25;5022929;28;1463;-83
2022/08/12 11:18:42;;;;;;;;;;;;;;;22.73;51.64;100777.47;5019351;28;1500;-83
2022/08/12 11:21:07;;;;;;;;;;;;;;;22.70;52.09;100781.00;5018696;28;1459;-83
2022/08/12 11:23:32;;;;;;;;;;;;;;;22.77;51.02;100770.06;5001641;28;1781;-84
2022/08/12 11:25:58;;;;;;;;;;;;;;;22.87;51.43;100774.31;5024299;28;1835;-83
2022/08/12 11:28:23;;;;;;;;;;;;;;;22.83;51.30;100777.00;5022674;28;1890;-83
2022/08/12 11:30:48;;;;;;;;;;;;;;;22.89;49.04;100766.38;5022832;28;1491;-83
2022/08/12 11:33:13;;;;;;;;;;;;;;;22.81;48.61;100776.53;5017634;28;1749;-83
2022/08/12 11:35:42;;;;;;;;;;;;;;;22.91;50.13;100769.63;5010294;28;1605;-83
2022/08/12 11:38:08;;;;;;;;;;;;;;;23.13;50.02;100762.66;5013894;28;1428;-84
2022/08/12 11:40:33;;;;;;;;;;;;;;;23.16;48.31;100761.94;5017487;28;1478;-83
2022/08/12 11:42:59;;;;;;;;;;;;;;;23.26;49.19;100753.84;5014724;28;1881;-81
2022/08/12 11:45:25;;;;;;;;;;;;;;;23.29;47.54;100753.13;5018683;28;1412;-84
2022/08/12 11:47:50;;;;;;;;;;;;;;;23.29;48.43;100753.13;5019945;28;1989;-84
2022/08/12 11:50:15;;;;;;;;;;;;;;;23.27;48.80;100746.28;5014579;28;1321;-85
2022/08/12 11:52:40;;;;;;;;;;;;;;;23.25;48.84;100734.63;5016949;28;1344;-84
2022/08/12 11:55:06;;;;;;;;;;;;;;;23.31;47.54;100728.41;5013576;28;1479;-84
2022/08/12 11:57:31;;;;;;;;;;;;;;;23.25;48.83;100729.88;5005969;28;1157;-85
2022/08/12 11:59:56;;;;;;;;;;;;;;;23.29;47.62;100733.56;5017367;28;1586;-85
2022/08/12 12:02:21;;;;;;;;;;;;;;;23.43;48.85;100732.28;5018733;28;1140;-85
2022/08/12 12:04:47;;;;;;;;;;;;;;;23.50;49.74;100724.13;5014344;28;1720;-85
2022/08/12 12:07:12;;;;;;;;;;;;;;;23.46;48.44;100735.19;4995459;28;1890;-85
2022/08/12 12:09:38;;;;;;;;;;;;;;;23.56;49.38;100725.47;5014767;28;1312;-84
2022/08/12 12:12:03;;;;;;;;;;;;;;;23.59;49.16;100727.53;5014739;28;1693;-85
2022/08/12 12:14:29;;;;;;;;;;;;;;;23.58;47.88;100723.09;5015310;28;1397;-85
2022/08/12 12:16:54;;;;;;;;;;;;;;;23.64;48.33;100719.69;5020851;28;1575;-83
2022/08/12 12:19:19;;;;;;;;;;;;;;;23.71;47.86;100719.84;5017821;28;1471;-83
2022/08/12 12:21:44;;;;;;;;;;;;;;;23.83;47.75;100721.72;5016551;28;1915;-84
2022/08/12 12:24:09;;;;;;;;;;;;;;;23.79;47.25;100722.81;5019971;28;1826;-83
2022/08/12 12:26:35;;;;;;;;;;;;;;;23.85;47.88;100718.56;5022137;28;1418;-83
2022/08/12 12:29:00;;;;;;;;;;;;;;;23.88;47.59;100715.84;5021211;28;1867;-83
2022/08/12 12:31:25;;;;;;;;;;;;;;;23.94;47.35;100719.16;5019214;28;1567;-83
2022/08/12 12:33:50;;;;;;;;;;;;;;;24.01;46.86;100700.56;5017061;28;1645;-83
2022/08/12 12:36:15;;;;;;;;;;;;;;;24.00;46.32;100706.50;5017810;28;1232;-84
2022/08/12 12:38:40;;;;;;;;;;;;;;;24.14;46.10;100698.44;5016436;28;1245;-84
2022/08/12 12:41:06;;;;;;;;;;;;;;;24.28;46.08;100695.16;5017132;28;1073;-83
2022/08/12 12:43:31;;;;;;;;;;;;;;;24.28;44.98;100687.56;5020638;28;1377;-84
2022/08/12 12:45:56;;;;;;;;;;;;;;;24.31;45.67;100686.84;5020025;28;1261;-83
2022/08/12 12:48:24;;;;;;;;;;;;;;;24.34;44.22;100680.50;5020017;28;1906;-84
2022/08/12 12:53:39;;;;;;;;;;;;;;;24.49;44.90;100682.41;5019348;28;1287;-84
2022/08/12 12:56:11;;;;;;;;;;;;;;;24.52;46.05;100680.84;5019732;28;1227;-84
2022/08/12 12:58:36;;;;;;;;;;;;;;;24.58;46.21;100679.38;5020668;28;1555;-84
2022/08/12 13:01:01;;;;;;;;;;;;;;;24.63;44.75;100681.06;5017591;28;1235;-83
2022/08/12 13:03:26;;;;;;;;;;;;;;;24.69;45.32;100687.97;5016274;28;1314;-83
2022/08/12 13:05:55;;;;;;;;;;;;;;;24.68;45.53;100680.75;5016192;28;1012;-84
2022/08/12 13:08:23;;;;;;;;;;;;;;;24.68;45.66;100675.94;5016076;28;1890;-84
2022/08/12 13:10:48;;;;;;;;;;;;;;;24.80;44.74;100686.19;5004516;28;1809;-84
2022/08/12 13:13:16;;;;;;;;;;;;;;;24.84;43.07;100678.63;4997003;28;1332;-84
2022/08/12 13:15:41;;;;;;;;;;;;;;;24.92;44.21;100674.84;4997284;28;1346;-83
2022/08/12 13:18:06;;;;;;;;;;;;;;;25.25;41.70;100669.41;5002625;28;1750;-84
2022/08/12 13:20:31;;;;;;;;;;;;;;;25.48;41.90;100668.53;5016042;28;1094;-84
2022/08/12 13:22:56;;;;;;;;;;;;;;;25.59;41.53;100672.34;5016210;28;1292;-83
2022/08/12 13:25:23;;;;;;;;;;;;;;;26.56;40.47;100670.41;5017637;28;1239;-83
2022/08/12 13:27:48;;;;;;;;;;;;;;;28.22;37.52;100667.31;5015792;28;1898;-84
2022/08/12 13:30:21;;;;;;;;;;;;;;;29.87;35.40;100661.41;5015114;28;1615;-84
2022/08/12 13:32:54;;;;;;;;;;;;;;;31.37;33.16;100656.53;5015615;28;1638;-84
2022/08/12 13:35:19;;;;;;;;;;;;;;;32.30;31.88;100659.97;5016468;28;1319;-84
2022/08/12 13:37:54;;;;;;;;;;;;;;;32.96;30.68;100660.22;5016129;28;1987;-84
2022/08/12 13:40:20;;;;;;;;;;;;;;;33.40;30.51;100650.59;5016993;28;1766;-84
2022/08/12 13:42:48;;;;;;;;;;;;;;;33.79;29.85;100655.53;5016991;28;1393;-85
2022/08/12 13:45:14;;;;;;;;;;;;;;;34.38;29.69;100659.63;5018754;28;1216;-85
2022/08/12 13:47:54;;;;;;;;;;;;;;;34.83;29.67;100651.31;5015678;28;1899;-83
2022/08/12 13:50:19;;;;;;;;;;;;;;;34.81;28.94;100651.75;4999326;28;881;-85
2022/08/12 13:52:44;;;;;;;;;;;;;;;35.08;28.39;100637.25;4997951;28;989;-85
2022/08/12 13:55:09;;;;;;;;;;;;;;;35.08;28.32;100642.94;5003384;28;1197;-84
2022/08/12 13:57:42;;;;;;;;;;;;;;;35.27;27.26;100646.97;5002871;28;878;-85
2022/08/12 14:00:08;;;;;;;;;;;;;;;34.84;26.78;100633.81;5023705;28;1225;-85
2022/08/12 14:02:33;;;;;;;;;;;;;;;33.86;28.74;100634.72;5024312;28;845;-85
2022/08/12 14:04:58;;;;;;;;;;;;;;;33.10;29.43;100633.66;5022338;28;1344;-83
2022/08/12 14:07:23;;;;;;;;;;;;;;;32.00;30.56;100637.25;5022646;28;1894;-84
2022/08/12 14:12:35;;;;;;;;;;;;;;;30.35;32.33;100624.94;5021795;28;632;-84
2022/08/12 14:15:00;;;;;;;;;;;;;;;29.82;32.53;100625.94;5023418;28;1291;-84
2022/08/12 14:17:26;;;;;;;;;;;;;;;29.48;33.36;100619.19;5020983;28;984;-84
2022/08/12 14:22:35;;;;;;;;;;;;;;;29.17;34.71;100635.72;5024492;28;1145;-84
2022/08/12 14:25:00;;;;;;;;;;;;;;;29.22;34.67;100628.88;5022585;28;1212;-84
2022/08/12 14:27:27;;;;;;;;;;;;;;;29.10;34.79;100629.25;5023759;28;1867;-84
2022/08/12 14:29:52;;;;;;;;;;;;;;;28.91;35.13;100634.13;5022382;28;1797;-84
2022/08/12 14:32:17;;;;;;;;;;;;;;;28.81;35.22;100629.28;5021555;28;1773;-84
2022/08/12 14:34:43;;;;;;;;;;;;;;;28.74;34.95;100634.88;5021370;28;1293;-84